Accueil
METAR-TAF:

METAR-TAF

Aéroports :

Bückeburg, Allemagne

latitude: 52-17N, longitude: 009-05E, altitude: 70 m

Observation

Le bulletin a été fait il y a 1 heure et 30 minutes, à 10:20 UTC
Vent 7 kt de ouest/nord-ouest
Température 9°C
Humidité 49%
Pression 1014 hPa
Visibilité: 5000 m

METAR: ETHB 031020Z AUTO 29007KT 5000 // ////// 09/M01 Q1014 ///

Heure: 13:50 (11:50 UTC)

Prévision

Le bulletin a été fait il y a 15 heures et 19 minutes, à 20:31 UTC
Prévision valable du 02 à 20 UTC au 03 à 05 UTC
Vent 10 kt de ouest/sud-ouest
Visibilité 10 km ou plus
Nuages fragmentés à une hauteur de 4000 ft
Temporairement
du 02 à 22 UTC au 03 à 04 UTC
Vent 12 kt de ouest
Visibilité: 2100 m
Nuages épars à une hauteur de 1000 ft
Nuages fragmentés à une hauteur de 1500 ft, Cumulus congestus.
averses de pluie

TAF: ETHB 022031Z 0220/0305 25010KT 9999 NSW BKN040 TEMPO 0222/0304 27012KT 4000 SHRA SCT010 BKN015TCU CANCEL 2100

Observations et prévisions météorologiques de plus de 4000 aéroports (messages METAR et TAF).

Les stations disponibles sont représentées par des disques jaunes et rouges sur la carte.

Passer la souris dessus pour voir le nom de la station.

Cliquer dessus pour voir les observations et prévisions météorologiques.

Pour changer de carte: cliquez sur les boutons verts avec une croix noire pour zoomer, sur le bouton vert avec un tiret pour effectuer un zoom arrière, ou sur les flèches vertes pour les cartes adjacentes.


METAR-TAF: